Hackettstown, NJ

4:29 PM EST on February 06, 2016 (GMT -0500)
Snow Dog Lucy's Yard | | Change Station
CLOSE
Current Station
Personal Weather Station
Location: Hackettstown, NJ
Elevation: 988 ft
Nearby Weather Stations

Elev 988 ft 40.87 °N, 74.84 °W | Updated 12 seconds ago

Partly Cloudy
Partly Cloudy
37.2 °F
Feels Like 37 °F
N
2.0
Wind Variable Wind from WSW
Gusts 2.5 mph

Today
High -- | Low -- °F
--% Chance of Precip.
Yesterday
High -- | Low -- °F
Precip. -- in
Pressure 30.28 in
Visibility 10.0 miles
Clouds Clear
Windchill 37 °F
Dew Point 14 °F
Humidity 39%
Rainfall 0.00 in
Snow Depth Not available.
7:04 AM 5:22 PM
Waning Crescent, 4% visible
METAR KSMQ 062053Z AUTO 21004KT 10SM CLR 05/M09 A3027 RMK AO2 SLP253 T00501089 56022
Pressure 30.28 in
Visibility 10.0 miles
Clouds Clear
Windchill 37 °F
Dew Point 14 °F
Humidity 39%
Rainfall 0.00 in
Snow Depth Not available.
7:04 AM 5:22 PM
Waning Crescent, 4% visible
METAR KSMQ 062053Z AUTO 21004KT 10SM CLR 05/M09 A3027 RMK AO2 SLP253 T00501089 56022

10-Day Weather Forecast

Almanac

Astronomy

Feb. 06, 2016 Rise Set
Actual Time
Civil Twilight
Nautical Twilight
Astronomical Twilight
Moon
Length of Visible Light
Length of Day
Tomorrow will be .
, % of the Moon is Illuminated

Today's Extremes

State Highs State Lows

Community

WunderPhotos

Upload Photos

1,891,050 photos uploaded!

WunderBlog® & News

Nearby

Air Quality

  Air Quality AQ Index Pollutant
Not available.

Snow Depth

Station Depth Elevation

Earthquake Activity

City Distance Mag. Time & Date
Minimum magnitude displayed is 2.5.

Coastal Water Temperatures

Place Temperature

Stations

Nearby Weather Stations

Station Location Temp. Windchill Dew Point Humidity Wind Precip. Elev Updated Type
                   

Watches & Warnings

There are currently no watches in effect.